Main page
METAR-TAF:

METAR-TAF

Airports :

Simón Bolívar International Airport

Caracas, Venezuela

latitude: 10-36N, longitude: 066-59W, elevation: 43 m

Current weather observation

The report was made 12 minutes ago, at 16:00 UTC
Wind 4 kt from the East
Temperature 30°C
Humidity 62%
Pressure 1014 hPa
Visibility 10 km or more
Few clouds at a height of 1600 ft

METAR: SVMI 091600Z 09004KT 9999 FEW016 30/22 Q1014

Time: 12:12 (16:12 UTC)

Forecast

The report was made 6 hours and 12 minutes ago, at 10:00 UTC
Forecast valid from 09 at 12 UTC to 10 at 12 UTC
Wind kt from the North
Visibility 10 km or more
no clouds below 1500 m and no cumulonimbus
Becoming
from 09 at 12 UTC to 09 at 16 UTC
Wind 5 kt from the East
Few clouds at a height of 1600 ft
From 09 at 1700 UTC
Wind 8 kt from the East
Visibility 10 km or more
Scattered clouds at a height of 1600 ft

TAF: SVMI 091000Z 0912/1012 00000KT CAVOK TX33/18Z TN23/08Z BECMG 0912/0916 09005KT FEW016 FM091700 09008KT 9999 SCT016

Weather observations and forecasts of more than 4000 airports (METAR and TAF reports).

The available stations are represented by yellow and red dots on the map.

Hover mouse over dot to see the name of the station.

Then click to see weather observations and forecasts.

To change the map : click on the green buttons with a black cross to zoom in, on the green button with a dash to zoom out, or on the green arrows for adjacent maps.


METAR-TAF: